Time;durP1;ratioP1;P1;durP2;ratioP2;P2;SDS_P1;SDS_P2;PMS_P1;PMS_P2;Temp;Humidity;BMP_temperature;BMP_pressure;BME280_temperature;BME280_humidity;BME280_pressure;Samples;Min_cycle;Max_cycle;Signal;HPM_P1;HPM_P2
2023/06/11 00:01:41;;;;;;;79.25;11.70;;;;;;;;;;5004990;28;20277;-58
2023/06/11 00:04:07;;;;;;;50.67;9.60;;;;;;;;;;5004717;28;20049;-58
2023/06/11 00:06:32;;;;;;;45.72;8.93;;;;;;;;;;5004493;28;20077;-57
2023/06/11 00:08:57;;;;;;;94.65;12.88;;;;;;;;;;5003997;28;20018;-58
2023/06/11 00:11:22;;;;;;;55.63;9.97;;;;;;;;;;5003192;28;20395;-57
2023/06/11 00:13:48;;;;;;;88.60;12.07;;;;;;;;;;5003118;28;20334;-55
2023/06/11 00:16:14;;;;;;;53.45;9.48;;;;;;;;;;5005201;28;20128;-55
2023/06/11 00:18:40;;;;;;;62.35;10.00;;;;;;;;;;5005136;28;20036;-56
2023/06/11 00:21:06;;;;;;;50.58;9.23;;;;;;;;;;5002456;28;20034;-56
2023/06/11 00:23:31;;;;;;;58.60;9.75;;;;;;;;;;5004257;28;20043;-53
2023/06/11 00:25:57;;;;;;;129.27;15.37;;;;;;;;;;5001474;28;20037;-55
2023/06/11 00:28:22;;;;;;;77.07;10.93;;;;;;;;;;5002909;28;20762;-54
2023/06/11 00:30:48;;;;;;;110.35;14.05;;;;;;;;;;5001947;28;20540;-55
2023/06/11 00:33:13;;;;;;;64.43;10.67;;;;;;;;;;5004226;28;20404;-53
2023/06/11 00:35:38;;;;;;;55.47;9.57;;;;;;;;;;5003029;28;20731;-56
2023/06/11 00:38:03;;;;;;;53.93;9.83;;;;;;;;;;5000519;28;20117;-56
2023/06/11 00:40:29;;;;;;;65.32;10.23;;;;;;;;;;5002855;28;20367;-54
2023/06/11 00:42:56;;;;;;;90.07;13.07;;;;;;;;;;5001989;28;20029;-55
2023/06/11 00:45:22;;;;;;;51.40;9.25;;;;;;;;;;5003503;28;20320;-57
2023/06/11 00:47:47;;;;;;;92.35;13.07;;;;;;;;;;5001389;28;20503;-54
2023/06/11 00:50:15;;;;;;;51.63;9.40;;;;;;;;;;5004695;28;20480;-56
2023/06/11 00:52:40;;;;;;;59.13;10.07;;;;;;;;;;5003656;28;20029;-55
2023/06/11 00:55:06;;;;;;;63.25;10.18;;;;;;;;;;5001752;28;20018;-56
2023/06/11 00:57:32;;;;;;;53.05;9.27;;;;;;;;;;5001234;28;20033;-55
2023/06/11 00:59:57;;;;;;;95.35;13.30;;;;;;;;;;5002034;28;20021;-56
2023/06/11 01:02:43;;;;;;;70.30;10.93;;;;;;;;;;5002635;28;20471;-56
2023/06/11 01:05:09;;;;;;;53.28;9.30;;;;;;;;;;5002900;28;20084;-56
2023/06/11 01:07:35;;;;;;;39.97;8.40;;;;;;;;;;5003035;28;20017;-56
2023/06/11 01:10:01;;;;;;;68.63;10.32;;;;;;;;;;5003130;28;20026;-54
2023/06/11 01:12:26;;;;;;;72.72;10.95;;;;;;;;;;5001592;28;20148;-56
2023/06/11 01:14:52;;;;;;;73.18;10.95;;;;;;;;;;5001104;28;20036;-55
2023/06/11 01:17:29;;;;;;;47.55;9.20;;;;;;;;;;5001479;28;20076;-55
2023/06/11 01:19:54;;;;;;;98.10;13.38;;;;;;;;;;5003642;28;20018;-57
2023/06/11 01:22:29;;;;;;;86.87;11.90;;;;;;;;;;5002306;28;20057;-58
2023/06/11 01:25:12;;;;;;;72.80;11.30;;;;;;;;;;5004806;28;20404;-58
2023/06/11 01:27:38;;;;;;;72.22;11.20;;;;;;;;;;5001543;28;20049;-58
2023/06/11 01:30:04;;;;;;;102.50;13.33;;;;;;;;;;5003257;28;20022;-57
2023/06/11 01:32:31;;;;;;;85.40;11.93;;;;;;;;;;5003403;28;20140;-59
2023/06/11 01:35:00;;;;;;;93.50;12.75;;;;;;;;;;5002646;28;20060;-58
2023/06/11 01:37:29;;;;;;;56.78;9.48;;;;;;;;;;5003864;28;20091;-55
2023/06/11 01:39:54;;;;;;;79.65;11.15;;;;;;;;;;5002542;28;20148;-57
2023/06/11 01:42:20;;;;;;;70.30;10.70;;;;;;;;;;5003357;28;20034;-57
2023/06/11 01:44:45;;;;;;;47.70;8.77;;;;;;;;;;5004947;28;20024;-58
2023/06/11 01:47:10;;;;;;;47.23;9.10;;;;;;;;;;5000793;28;20926;-57
2023/06/11 01:49:35;;;;;;;58.73;9.70;;;;;;;;;;5004243;28;20268;-58
2023/06/11 01:52:01;;;;;;;85.95;12.27;;;;;;;;;;5001743;28;20327;-57
2023/06/11 01:54:26;;;;;;;58.15;10.30;;;;;;;;;;5003786;28;20678;-57
2023/06/11 01:56:51;;;;;;;84.90;12.80;;;;;;;;;;5000640;28;20029;-59
2023/06/11 01:59:17;;;;;;;45.03;8.70;;;;;;;;;;5003698;28;20026;-58
2023/06/11 09:10:49;;;;;;;46.47;8.70;;;;;;;;;;4982568;27;20406;-57
2023/06/11 09:13:15;;;;;;;33.60;6.93;;;;;;;;;;5037009;28;20041;-56
2023/06/11 09:15:48;;;;;;;35.47;7.05;;;;;;;;;;5038007;28;20074;-55
2023/06/11 09:18:17;;;;;;;20.15;5.57;;;;;;;;;;5036576;28;20055;-55
2023/06/11 09:20:45;;;;;;;32.42;6.70;;;;;;;;;;5037410;28;20402;-58
2023/06/11 09:23:10;;;;;;;23.90;6.05;;;;;;;;;;5039836;28;20436;-57
2023/06/11 09:25:37;;;;;;;23.83;5.53;;;;;;;;;;5036900;28;20036;-58
2023/06/11 09:28:06;;;;;;;26.52;5.82;;;;;;;;;;5039688;28;20024;-56
2023/06/11 09:30:31;;;;;;;44.28;7.88;;;;;;;;;;5036278;28;20311;-58
2023/06/11 09:32:56;;;;;;;25.13;6.10;;;;;;;;;;5038189;28;20161;-59
2023/06/11 09:35:21;;;;;;;41.60;7.57;;;;;;;;;;5033777;28;20025;-56
2023/06/11 09:37:49;;;;;;;24.73;5.77;;;;;;;;;;5039118;28;20147;-58
2023/06/11 09:40:15;;;;;;;31.90;6.63;;;;;;;;;;5035802;28;20025;-55
2023/06/11 09:42:43;;;;;;;31.95;6.75;;;;;;;;;;5037373;28;20044;-56
2023/06/11 09:45:13;;;;;;;34.92;6.18;;;;;;;;;;5036628;28;20021;-57
2023/06/11 09:47:39;;;;;;;31.55;6.35;;;;;;;;;;5034352;28;20013;-56
2023/06/11 09:50:05;;;;;;;32.80;6.22;;;;;;;;;;5037910;28;20497;-56
2023/06/11 09:52:31;;;;;;;60.28;9.13;;;;;;;;;;5034789;28;20029;-55
2023/06/11 09:54:56;;;;;;;35.22;6.35;;;;;;;;;;5036979;28;20772;-55
2023/06/11 09:57:21;;;;;;;51.88;8.07;;;;;;;;;;5036297;28;20029;-57
2023/06/11 09:59:47;;;;;;;34.17;5.97;;;;;;;;;;5038753;28;20146;-55
2023/06/11 10:02:13;;;;;;;28.75;6.25;;;;;;;;;;5038077;28;20036;-57
2023/06/11 10:04:38;;;;;;;34.17;6.88;;;;;;;;;;5035460;28;20094;-57
2023/06/11 10:07:05;;;;;;;34.53;6.75;;;;;;;;;;5037666;28;20037;-57
2023/06/11 10:09:31;;;;;;;49.78;7.85;;;;;;;;;;5036229;28;20478;-56
2023/06/11 10:11:56;;;;;;;31.88;6.53;;;;;;;;;;5038627;28;20029;-57
2023/06/11 10:14:22;;;;;;;44.22;7.65;;;;;;;;;;5039058;28;20099;-57
2023/06/11 10:16:48;;;;;;;36.33;6.47;;;;;;;;;;5036477;28;20041;-55
2023/06/11 10:19:14;;;;;;;32.67;6.32;;;;;;;;;;5037028;28;20071;-59
2023/06/11 10:21:50;;;;;;;25.67;5.30;;;;;;;;;;5023802;28;20038;-58
2023/06/11 10:24:25;;;;;;;29.95;6.07;;;;;;;;;;5024894;28;20021;-59
2023/06/11 10:27:12;;;;;;;33.20;6.45;;;;;;;;;;5024362;28;20091;-60
2023/06/11 10:29:39;;;;;;;27.23;5.53;;;;;;;;;;5023754;28;20469;-60
2023/06/11 10:32:13;;;;;;;36.22;5.90;;;;;;;;;;5025066;28;20067;-56
2023/06/11 10:34:39;;;;;;;45.47;6.95;;;;;;;;;;5021426;28;20482;-56
2023/06/11 10:37:05;;;;;;;38.83;6.45;;;;;;;;;;5022894;28;20036;-57
2023/06/11 10:39:30;;;;;;;69.13;9.90;;;;;;;;;;5022047;28;20033;-58
2023/06/11 10:42:00;;;;;;;34.85;6.97;;;;;;;;;;5024680;28;20029;-55
2023/06/11 10:44:25;;;;;;;43.47;7.93;;;;;;;;;;5023070;28;20025;-57
2023/06/11 10:46:51;;;;;;;36.63;6.80;;;;;;;;;;5022854;28;20041;-57
2023/06/11 10:49:20;;;;;;;34.20;5.97;;;;;;;;;;5024538;28;20028;-57
2023/06/11 10:51:46;;;;;;;32.90;6.20;;;;;;;;;;5022199;28;20030;-58
2023/06/11 10:54:22;;;;;;;32.00;6.40;;;;;;;;;;5024936;28;20504;-56
2023/06/11 10:56:47;;;;;;;29.35;6.28;;;;;;;;;;5021809;28;20527;-55
2023/06/11 10:59:13;;;;;;;28.03;5.73;;;;;;;;;;5023175;28;20025;-55
2023/06/11 11:01:38;;;;;;;44.97;7.72;;;;;;;;;;5024172;28;20047;-55
2023/06/11 11:04:03;;;;;;;29.33;5.97;;;;;;;;;;5023288;28;20359;-57
2023/06/11 11:06:30;;;;;;;52.05;8.27;;;;;;;;;;5019780;28;20057;-54
2023/06/11 11:08:55;;;;;;;29.45;6.22;;;;;;;;;;5022574;28;20021;-59
2023/06/11 11:11:21;;;;;;;26.23;6.43;;;;;;;;;;5020432;28;20113;-54
2023/06/11 11:13:46;;;;;;;29.83;5.97;;;;;;;;;;5024485;28;20024;-56
2023/06/11 11:16:11;;;;;;;24.83;5.53;;;;;;;;;;5022556;28;20038;-56
2023/06/11 11:18:37;;;;;;;38.40;6.95;;;;;;;;;;5021133;28;20082;-55
2023/06/11 11:21:02;;;;;;;25.08;5.47;;;;;;;;;;5022965;28;20171;-56
2023/06/11 11:23:30;;;;;;;51.55;8.38;;;;;;;;;;5023507;28;20098;-58
2023/06/11 11:25:56;;;;;;;43.22;7.72;;;;;;;;;;5021423;28;20030;-56
2023/06/11 11:28:21;;;;;;;27.57;6.33;;;;;;;;;;5022926;28;20021;-57
2023/06/11 11:30:46;;;;;;;39.03;7.33;;;;;;;;;;5021887;28;20108;-55
2023/06/11 11:33:12;;;;;;;26.95;6.10;;;;;;;;;;5022567;28;20279;-56
2023/06/11 11:35:54;;;;;;;53.23;8.97;;;;;;;;;;5019835;28;20094;-54
2023/06/11 11:38:21;;;;;;;31.20;6.57;;;;;;;;;;5022069;28;20347;-57
2023/06/11 11:40:52;;;;;;;33.75;7.25;;;;;;;;;;5021343;28;20022;-55
2023/06/11 11:43:18;;;;;;;24.65;6.30;;;;;;;;;;5023599;28;20103;-56
2023/06/11 11:45:47;;;;;;;26.17;6.87;;;;;;;;;;5023370;28;20035;-56
2023/06/11 11:48:13;;;;;;;27.20;6.43;;;;;;;;;;5023061;28;20255;-56
2023/06/11 11:50:40;;;;;;;60.38;10.23;;;;;;;;;;5020854;28;20048;-55
2023/06/11 11:53:06;;;;;;;32.65;7.22;;;;;;;;;;5024429;28;20560;-56
2023/06/11 11:55:33;;;;;;;47.25;8.65;;;;;;;;;;5019624;28;20037;-57
2023/06/11 11:58:02;;;;;;;33.15;7.25;;;;;;;;;;5022941;28;20414;-54
2023/06/11 12:00:28;;;;;;;56.38;9.30;;;;;;;;;;5023622;28;20107;-57
2023/06/11 12:02:55;;;;;;;40.97;8.00;;;;;;;;;;5022661;28;20100;-58
2023/06/11 12:05:20;;;;;;;42.25;8.38;;;;;;;;;;5023407;28;20271;-57
2023/06/11 12:07:52;;;;;;;42.63;8.27;;;;;;;;;;5021978;28;20021;-56
2023/06/11 12:10:17;;;;;;;;;;;;;;;;;;5022742;28;20287;-57
2023/06/11 12:12:42;;;;;;;77.43;11.82;;;;;;;;;;5020399;28;19919;-55
2023/06/11 12:15:07;;;;;;;42.20;7.57;;;;;;;;;;5022367;28;20020;-54
2023/06/11 12:17:33;;;;;;;63.80;10.13;;;;;;;;;;5019821;28;20033;-57
2023/06/11 12:19:58;;;;;;;41.40;7.88;;;;;;;;;;5023598;28;20482;-55
2023/06/11 12:22:28;;;;;;;49.33;9.20;;;;;;;;;;5022285;28;20789;-56
2023/06/11 12:24:53;;;;;;;44.22;8.32;;;;;;;;;;5020373;28;20021;-57
2023/06/11 12:27:20;;;;;;;32.07;7.00;;;;;;;;;;5021594;28;20203;-56
2023/06/11 12:29:52;;;;;;;28.73;6.68;;;;;;;;;;5020049;28;20296;-57
2023/06/11 12:32:20;;;;;;;29.83;6.43;;;;;;;;;;5022255;28;20075;-58
2023/06/11 12:34:45;;;;;;;32.80;6.95;;;;;;;;;;5021189;28;21350;-54
2023/06/11 12:37:11;;;;;;;35.13;7.32;;;;;;;;;;5019859;28;20037;-55
2023/06/11 12:39:36;;;;;;;60.95;9.90;;;;;;;;;;5019357;28;20029;-56
2023/06/11 12:42:01;;;;;;;35.17;6.78;;;;;;;;;;5020662;28;20495;-56
2023/06/11 12:44:26;;;;;;;34.25;6.88;;;;;;;;;;5019248;28;20037;-54
2023/06/11 12:46:52;;;;;;;37.63;7.30;;;;;;;;;;5020153;28;20068;-57
2023/06/11 12:49:22;;;;;;;33.60;6.77;;;;;;;;;;5023046;28;20026;-56
2023/06/11 12:51:48;;;;;;;34.80;6.78;;;;;;;;;;5019205;28;20041;-56
2023/06/11 12:54:15;;;;;;;33.28;7.25;;;;;;;;;;5022258;28;20401;-58
2023/06/11 12:56:40;;;;;;;73.70;11.35;;;;;;;;;;5017754;28;20041;-58
2023/06/11 12:59:05;;;;;;;42.10;7.77;;;;;;;;;;5021620;28;20217;-58
2023/06/11 13:01:30;;;;;;;62.00;9.57;;;;;;;;;;5019250;28;20804;-57
2023/06/11 13:03:56;;;;;;;39.80;7.78;;;;;;;;;;5021462;28;20526;-59
2023/06/11 13:06:21;;;;;;;38.00;7.47;;;;;;;;;;5022334;28;20030;-54
2023/06/11 13:08:46;;;;;;;42.53;8.10;;;;;;;;;;5019977;28;20139;-59
2023/06/11 13:11:12;;;;;;;38.77;7.77;;;;;;;;;;5020687;28;20068;-55
2023/06/11 13:13:37;;;;;;;74.30;11.13;;;;;;;;;;5021032;28;20848;-57
2023/06/11 13:16:02;;;;;;;60.97;9.93;;;;;;;;;;5019730;28;20363;-54
2023/06/11 13:18:28;;;;;;;37.25;7.10;;;;;;;;;;5021307;28;20260;-55
2023/06/11 13:20:53;;;;;;;31.73;6.95;;;;;;;;;;5022774;28;20310;-57
2023/06/11 13:23:25;;;;;;;40.55;7.70;;;;;;;;;;5021858;28;20013;-56
2023/06/11 13:25:51;;;;;;;50.42;8.57;;;;;;;;;;5019876;28;20041;-57
2023/06/11 13:28:16;;;;;;;48.05;8.65;;;;;;;;;;5022969;28;20129;-58
2023/06/11 13:30:41;;;;;;;69.30;11.07;;;;;;;;;;5021505;28;20063;-55
2023/06/11 13:33:07;;;;;;;41.53;7.33;;;;;;;;;;5022429;28;20021;-57
2023/06/11 13:35:32;;;;;;;69.40;10.52;;;;;;;;;;5018932;28;20048;-56
2023/06/11 13:37:58;;;;;;;45.75;7.80;;;;;;;;;;5021210;28;20017;-55
2023/06/11 13:40:23;;;;;;;43.85;8.23;;;;;;;;;;5020257;28;20570;-54
2023/06/11 13:42:48;;;;;;;42.67;7.90;;;;;;;;;;5020575;28;21429;-56
2023/06/11 13:45:14;;;;;;;46.07;7.90;;;;;;;;;;5022271;28;20263;-55
2023/06/11 13:47:39;;;;;;;69.13;10.87;;;;;;;;;;5020627;28;20279;-53
2023/06/11 13:50:05;;;;;;;42.67;7.43;;;;;;;;;;5023941;28;20587;-55
2023/06/11 13:52:30;;;;;;;56.40;9.30;;;;;;;;;;5019647;28;20059;-53
2023/06/11 13:54:56;;;;;;;48.23;8.87;;;;;;;;;;5021484;28;20021;-58
2023/06/11 13:57:21;;;;;;;45.40;8.00;;;;;;;;;;5023059;28;20047;-57
2023/06/11 13:59:46;;;;;;;71.15;10.75;;;;;;;;;;5024556;28;20020;-56
2023/06/11 14:02:12;;;;;;;43.67;8.07;;;;;;;;;;5023856;28;20399;-56
2023/06/11 14:04:37;;;;;;;67.78;10.60;;;;;;;;;;5024616;28;20131;-55
2023/06/11 14:07:03;;;;;;;51.27;8.27;;;;;;;;;;5021297;28;20410;-57
2023/06/11 14:09:28;;;;;;;41.90;7.60;;;;;;;;;;5024043;28;20390;-56
2023/06/11 14:11:53;;;;;;;50.15;8.48;;;;;;;;;;5023479;28;20021;-59
2023/06/11 14:14:19;;;;;;;55.70;9.10;;;;;;;;;;5024270;28;20017;-56
2023/06/11 14:16:44;;;;;;;71.73;10.53;;;;;;;;;;5020806;28;20033;-56
2023/06/11 14:19:10;;;;;;;38.70;7.47;;;;;;;;;;5026048;28;20770;-55
2023/06/11 14:21:35;;;;;;;62.72;9.77;;;;;;;;;;5022178;28;20120;-59
2023/06/11 14:24:01;;;;;;;45.80;7.70;;;;;;;;;;5023843;28;20108;-54
2023/06/11 14:26:27;;;;;;;46.15;8.23;;;;;;;;;;5025076;28;20148;-57
2023/06/11 14:28:52;;;;;;;44.38;7.47;;;;;;;;;;5023859;28;20038;-57
2023/06/11 14:31:18;;;;;;;44.33;7.88;;;;;;;;;;5023218;28;20060;-57
2023/06/11 14:33:43;;;;;;;73.78;10.70;;;;;;;;;;5020228;28;20051;-57
2023/06/11 14:36:08;;;;;;;57.83;9.13;;;;;;;;;;5023376;28;20026;-57
2023/06/11 14:38:33;;;;;;;42.50;7.25;;;;;;;;;;5021347;28;20501;-56
2023/06/11 14:40:59;;;;;;;54.15;8.55;;;;;;;;;;5026256;28;20118;-57
2023/06/11 14:43:24;;;;;;;40.33;7.47;;;;;;;;;;5025148;28;20023;-56
2023/06/11 14:45:49;;;;;;;80.10;11.90;;;;;;;;;;5021680;28;20037;-56
2023/06/11 14:48:15;;;;;;;46.50;8.02;;;;;;;;;;5023576;28;20021;-55
2023/06/11 14:50:40;;;;;;;81.83;12.00;;;;;;;;;;5022510;28;20041;-56
2023/06/11 14:53:07;;;;;;;57.10;8.77;;;;;;;;;;5023884;28;20025;-56
2023/06/11 14:55:32;;;;;;;48.08;7.68;;;;;;;;;;5023788;28;20284;-56
2023/06/11 14:57:58;;;;;;;43.90;8.10;;;;;;;;;;5022925;28;20023;-56
2023/06/11 15:00:23;;;;;;;53.13;8.63;;;;;;;;;;5024146;28;20390;-56
2023/06/11 15:02:48;;;;;;;59.60;9.32;;;;;;;;;;5022878;28;20013;-58
2023/06/11 15:05:13;;;;;;;47.30;8.07;;;;;;;;;;5023997;28;20053;-57
2023/06/11 15:07:39;;;;;;;70.93;10.60;;;;;;;;;;5021730;28;20272;-57
2023/06/11 15:10:07;;;;;;;45.40;7.20;;;;;;;;;;5025966;28;20033;-57
2023/06/11 15:12:32;;;;;;;58.33;8.75;;;;;;;;;;5021859;28;20049;-57
2023/06/11 15:15:00;;;;;;;42.30;6.23;;;;;;;;;;5021543;28;20811;-58
2023/06/11 15:17:25;;;;;;;46.85;7.45;;;;;;;;;;5022768;28;20265;-56
2023/06/11 15:19:51;;;;;;;78.10;10.83;;;;;;;;;;5020990;28;20024;-58
2023/06/11 15:22:16;;;;;;;48.83;7.67;;;;;;;;;;5022946;28;20037;-56
2023/06/11 15:24:41;;;;;;;58.43;8.90;;;;;;;;;;5023666;28;20036;-55
2023/06/11 15:27:07;;;;;;;44.73;7.13;;;;;;;;;;5021034;28;20357;-54
2023/06/11 15:29:32;;;;;;;53.08;7.93;;;;;;;;;;5022565;28;20378;-59
2023/06/11 15:31:58;;;;;;;49.23;8.40;;;;;;;;;;5020957;28;20572;-59
2023/06/11 15:34:23;;;;;;;40.97;7.88;;;;;;;;;;5023627;28;20537;-55
2023/06/11 15:36:48;;;;;;;72.03;10.77;;;;;;;;;;5019854;28;20036;-57
2023/06/11 15:39:14;;;;;;;43.13;7.90;;;;;;;;;;5022907;28;20110;-62
2023/06/11 15:41:39;;;;;;;60.40;8.98;;;;;;;;;;5019670;28;20099;-56
2023/06/11 15:44:04;;;;;;;42.28;7.55;;;;;;;;;;5023398;28;20029;-56
2023/06/11 15:46:30;;;;;;;44.20;7.90;;;;;;;;;;5021717;28;20408;-59
2023/06/11 15:48:56;;;;;;;83.53;11.07;;;;;;;;;;5021483;28;20292;-57
2023/06/11 15:51:22;;;;;;;42.47;7.60;;;;;;;;;;5022487;28;20600;-56
2023/06/11 15:53:47;;;;;;;74.45;10.30;;;;;;;;;;5021093;28;20105;-56
2023/06/11 15:56:12;;;;;;;50.10;7.77;;;;;;;;;;5023364;28;20045;-58
2023/06/11 15:58:38;;;;;;;47.08;7.95;;;;;;;;;;5022901;28;20244;-56
2023/06/11 16:01:03;;;;;;;42.65;7.85;;;;;;;;;;5023547;28;20513;-57
2023/06/11 16:03:29;;;;;;;45.50;7.90;;;;;;;;;;5022728;28;20773;-57
2023/06/11 16:05:54;;;;;;;89.25;12.32;;;;;;;;;;5019474;28;20280;-55
2023/06/11 16:08:19;;;;;;;44.83;7.73;;;;;;;;;;5022694;28;20341;-57
2023/06/11 16:10:44;;;;;;;82.97;11.88;;;;;;;;;;5020324;28;20299;-58
2023/06/11 16:13:10;;;;;;;45.47;7.90;;;;;;;;;;5024230;28;20036;-57
2023/06/11 16:15:35;;;;;;;42.97;7.57;;;;;;;;;;5019770;28;20454;-56
2023/06/11 16:18:00;;;;;;;47.13;7.72;;;;;;;;;;5020080;28;20053;-57
2023/06/11 16:20:26;;;;;;;44.22;7.57;;;;;;;;;;5022878;28;20017;-57
2023/06/11 16:22:52;;;;;;;70.25;10.23;;;;;;;;;;5021779;28;20020;-56
2023/06/11 16:25:19;;;;;;;47.85;7.82;;;;;;;;;;5022637;28;20024;-54
2023/06/11 16:27:44;;;;;;;77.15;11.02;;;;;;;;;;5019440;28;20052;-54
2023/06/11 16:30:11;;;;;;;49.95;8.27;;;;;;;;;;5019734;28;20100;-54
2023/06/11 16:32:36;;;;;;;61.63;8.40;;;;;;;;;;5021132;28;20064;-57
2023/06/11 16:35:02;;;;;;;42.53;7.40;;;;;;;;;;5019663;28;20101;-56
2023/06/11 16:37:27;;;;;;;54.38;8.45;;;;;;;;;;5018506;28;20347;-57
2023/06/11 16:39:52;;;;;;;57.10;8.50;;;;;;;;;;5019514;28;20152;-57
2023/06/11 16:42:17;;;;;;;45.10;7.70;;;;;;;;;;5019923;28;20403;-57
2023/06/11 16:44:43;;;;;;;52.40;8.20;;;;;;;;;;5019419;28;20025;-57
2023/06/11 16:47:09;;;;;;;42.07;6.80;;;;;;;;;;5020739;28;20272;-56
2023/06/11 16:49:34;;;;;;;55.63;8.50;;;;;;;;;;5021964;28;20033;-58
2023/06/11 16:52:03;;;;;;;43.65;7.38;;;;;;;;;;5019330;28;21471;-58
2023/06/11 16:54:28;;;;;;;48.83;7.78;;;;;;;;;;5021673;28;20376;-56
2023/06/11 16:56:53;;;;;;;81.07;12.10;;;;;;;;;;5017496;28;20029;-57
2023/06/11 16:59:18;;;;;;;50.00;8.27;;;;;;;;;;5022377;28;20116;-55
2023/06/11 17:01:44;;;;;;;66.60;9.52;;;;;;;;;;5017654;28;20136;-56
2023/06/11 17:04:09;;;;;;;40.47;6.30;;;;;;;;;;5021449;28;20453;-55
2023/06/11 17:06:34;;;;;;;47.53;8.37;;;;;;;;;;5019542;28;20279;-55
2023/06/11 17:08:59;;;;;;;84.10;11.17;;;;;;;;;;5021042;28;20029;-58
2023/06/11 17:11:25;;;;;;;53.63;8.50;;;;;;;;;;5020557;28;20280;-57
2023/06/11 17:13:50;;;;;;;75.33;10.50;;;;;;;;;;5018845;28;20272;-58
2023/06/11 17:16:16;;;;;;;55.80;8.77;;;;;;;;;;5020629;28;20732;-55
2023/06/11 17:18:42;;;;;;;42.23;7.17;;;;;;;;;;5021051;28;20029;-57
2023/06/11 17:21:07;;;;;;;49.50;8.23;;;;;;;;;;5021851;28;20318;-57
2023/06/11 17:23:33;;;;;;;48.67;7.97;;;;;;;;;;5020713;28;20291;-58
2023/06/11 17:25:58;;;;;;;95.93;12.77;;;;;;;;;;5020787;28;21210;-57
2023/06/11 17:28:23;;;;;;;52.50;8.90;;;;;;;;;;5022614;28;20326;-58
2023/06/11 17:30:48;;;;;;;82.23;11.23;;;;;;;;;;5018632;28;20041;-57
2023/06/11 17:33:14;;;;;;;47.73;7.77;;;;;;;;;;5024174;28;20287;-56
2023/06/11 17:35:39;;;;;;;54.78;7.90;;;;;;;;;;5024022;28;20679;-55
2023/06/11 17:38:04;;;;;;;45.20;7.45;;;;;;;;;;5024149;28;20029;-56
2023/06/11 17:40:30;;;;;;;42.97;7.07;;;;;;;;;;5024323;28;20043;-55
2023/06/11 17:42:57;;;;;;;77.35;10.77;;;;;;;;;;5023998;28;20017;-54
2023/06/11 17:45:24;;;;;;;45.40;7.55;;;;;;;;;;5024884;28;20022;-56
2023/06/11 17:47:50;;;;;;;64.50;9.10;;;;;;;;;;5025063;28;20016;-57
2023/06/11 17:50:15;;;;;;;49.10;8.00;;;;;;;;;;5025450;28;20018;-58
2023/06/11 17:52:42;;;;;;;58.87;9.00;;;;;;;;;;5024092;28;20481;-57
2023/06/11 17:55:12;;;;;;;51.90;8.13;;;;;;;;;;5022581;28;20104;-57
2023/06/11 17:57:38;;;;;;;41.33;7.10;;;;;;;;;;5025731;28;20406;-55
2023/06/11 18:00:03;;;;;;;68.95;9.48;;;;;;;;;;5023196;28;20487;-57
2023/06/11 18:02:28;;;;;;;47.85;7.75;;;;;;;;;;5022133;28;20132;-54
2023/06/11 18:04:54;;;;;;;62.97;9.60;;;;;;;;;;5022521;28;20041;-57
2023/06/11 18:07:20;;;;;;;37.65;7.43;;;;;;;;;;5022344;28;20086;-58
2023/06/11 18:09:45;;;;;;;46.90;7.43;;;;;;;;;;5023392;28;20025;-58
2023/06/11 18:12:10;;;;;;;33.57;6.17;;;;;;;;;;5023062;28;20124;-58
2023/06/11 18:14:35;;;;;;;36.17;7.23;;;;;;;;;;5024118;28;20060;-56
2023/06/11 18:17:01;;;;;;;52.47;8.13;;;;;;;;;;5024081;28;20334;-55
2023/06/11 18:19:26;;;;;;;45.47;7.43;;;;;;;;;;5025477;28;20271;-57
2023/06/11 18:21:51;;;;;;;67.65;9.18;;;;;;;;;;5021892;28;20313;-55
2023/06/11 18:24:16;;;;;;;29.90;5.97;;;;;;;;;;5023710;28;20017;-57
2023/06/11 18:26:42;;;;;;;37.77;6.87;;;;;;;;;;5022812;28;20271;-55
2023/06/11 18:29:07;;;;;;;33.87;6.67;;;;;;;;;;5024111;28;20381;-58
2023/06/11 18:31:32;;;;;;;39.03;7.83;;;;;;;;;;5024748;28;20818;-56
2023/06/11 18:33:57;;;;;;;70.70;11.43;;;;;;;;;;5023734;28;20363;-57
2023/06/11 18:36:23;;;;;;;46.53;8.93;;;;;;;;;;5021431;28;20116;-56
2023/06/11 18:38:48;;;;;;;46.13;8.93;;;;;;;;;;5022859;28;20270;-55
2023/06/11 18:41:16;;;;;;;46.33;8.23;;;;;;;;;;5025049;28;20353;-55
2023/06/11 18:43:41;;;;;;;37.80;7.32;;;;;;;;;;5023836;28;20260;-54
2023/06/11 18:46:07;;;;;;;56.53;9.10;;;;;;;;;;5020322;28;20599;-55
2023/06/11 18:48:32;;;;;;;40.93;7.10;;;;;;;;;;5024134;28;20503;-58
2023/06/11 18:50:57;;;;;;;67.87;10.13;;;;;;;;;;5021726;28;20284;-56
2023/06/11 18:53:22;;;;;;;45.97;7.70;;;;;;;;;;5022565;28;20793;-58
2023/06/11 18:55:48;;;;;;;49.77;7.80;;;;;;;;;;5024086;28;20749;-58
2023/06/11 18:58:13;;;;;;;33.63;6.67;;;;;;;;;;5014582;28;20045;-58
2023/06/11 19:00:38;;;;;;;49.00;7.87;;;;;;;;;;5021276;28;20284;-58
2023/06/11 19:03:03;;;;;;;62.33;8.57;;;;;;;;;;5024622;28;20295;-56
2023/06/11 19:05:29;;;;;;;43.90;7.40;;;;;;;;;;5022357;28;20310;-58
2023/06/11 19:07:54;;;;;;;78.00;10.50;;;;;;;;;;5023454;28;20017;-57
2023/06/11 19:10:22;;;;;;;44.30;7.25;;;;;;;;;;5023006;28;20280;-55
2023/06/11 19:12:48;;;;;;;34.95;6.65;;;;;;;;;;5024469;28;20018;-57
2023/06/11 19:15:13;;;;;;;29.45;5.88;;;;;;;;;;5026726;28;20021;-57
2023/06/11 19:17:38;;;;;;;34.67;6.33;;;;;;;;;;5024352;28;20118;-56
2023/06/11 19:20:07;;;;;;;78.30;10.50;;;;;;;;;;5021706;28;20017;-56
2023/06/11 19:22:32;;;;;;;57.55;7.78;;;;;;;;;;5021239;28;20288;-57
2023/06/11 19:24:57;;;;;;;49.83;7.80;;;;;;;;;;5023437;28;20022;-57
2023/06/11 19:27:28;;;;;;;43.93;6.93;;;;;;;;;;5021540;28;20036;-55
2023/06/11 19:29:53;;;;;;;53.40;8.43;;;;;;;;;;5021528;28;20020;-58
2023/06/11 19:32:18;;;;;;;46.93;7.67;;;;;;;;;;5022364;28;20025;-56
2023/06/11 19:34:43;;;;;;;33.67;6.57;;;;;;;;;;5022509;28;20260;-58
2023/06/11 19:37:09;;;;;;;68.85;9.55;;;;;;;;;;5019380;28;20276;-56
2023/06/11 19:39:34;;;;;;;49.33;7.70;;;;;;;;;;5021529;28;20040;-57
2023/06/11 19:41:59;;;;;;;69.78;10.25;;;;;;;;;;5020922;28;20043;-56
2023/06/11 19:44:27;;;;;;;41.47;6.73;;;;;;;;;;5022738;28;20017;-56
2023/06/11 19:46:52;;;;;;;38.35;6.88;;;;;;;;;;5020401;28;20037;-57
2023/06/11 19:49:17;;;;;;;38.67;6.97;;;;;;;;;;5023966;28;20067;-57
2023/06/11 19:51:43;;;;;;;40.47;6.90;;;;;;;;;;5021771;28;20372;-58
2023/06/11 19:54:08;;;;;;;70.53;10.13;;;;;;;;;;5020456;28;20025;-57
2023/06/11 19:56:33;;;;;;;42.08;6.78;;;;;;;;;;5020884;28;20824;-55
2023/06/11 19:59:01;;;;;;;73.93;9.93;;;;;;;;;;5021035;28;20021;-56
2023/06/11 20:01:26;;;;;;;39.75;6.80;;;;;;;;;;5023406;28;20276;-55
2023/06/11 20:03:51;;;;;;;43.65;7.18;;;;;;;;;;5024308;28;20035;-55
2023/06/11 20:06:16;;;;;;;38.00;6.57;;;;;;;;;;5019475;28;20078;-57
2023/06/11 20:08:42;;;;;;;41.58;7.07;;;;;;;;;;5020194;28;20333;-55
2023/06/11 20:11:11;;;;;;;78.07;10.43;;;;;;;;;;5021909;28;20057;-58
2023/06/11 20:13:37;;;;;;;45.83;7.40;;;;;;;;;;5022193;28;20024;-58
2023/06/11 20:16:03;;;;;;;110.20;13.25;;;;;;;;;;5020137;28;20526;-57
2023/06/11 20:18:28;;;;;;;63.20;8.65;;;;;;;;;;5021345;28;20479;-60
2023/06/11 20:20:53;;;;;;;60.40;8.70;;;;;;;;;;5020554;28;20021;-56
2023/06/11 20:23:18;;;;;;;48.63;7.70;;;;;;;;;;5020796;28;20767;-58
2023/06/11 20:25:44;;;;;;;53.00;7.50;;;;;;;;;;5022000;28;20593;-57
2023/06/11 20:28:09;;;;;;;78.05;10.93;;;;;;;;;;5021030;28;20436;-58
2023/06/11 20:30:35;;;;;;;51.38;7.70;;;;;;;;;;5023462;28;20080;-58
2023/06/11 20:33:00;;;;;;;75.32;9.60;;;;;;;;;;5021015;28;20061;-57
2023/06/11 20:35:25;;;;;;;45.63;7.35;;;;;;;;;;5023033;28;20041;-57
2023/06/11 20:37:50;;;;;;;51.47;7.82;;;;;;;;;;5023566;28;20079;-55
2023/06/11 20:40:16;;;;;;;47.03;7.53;;;;;;;;;;5021911;28;20372;-55
2023/06/11 20:42:41;;;;;;;63.10;8.37;;;;;;;;;;5022075;28;20533;-57
2023/06/11 20:45:07;;;;;;;82.82;10.55;;;;;;;;;;5028842;28;20329;-58
2023/06/11 20:47:32;;;;;;;44.58;7.15;;;;;;;;;;5023699;28;20323;-58
2023/06/11 20:49:57;;;;;;;74.15;9.45;;;;;;;;;;5023027;28;20371;-58
2023/06/11 20:52:29;;;;;;;46.80;7.07;;;;;;;;;;5022937;28;20025;-56
2023/06/11 20:54:54;;;;;;;61.47;8.57;;;;;;;;;;5024168;28;20260;-55
2023/06/11 20:57:19;;;;;;;59.42;8.02;;;;;;;;;;5018557;28;20457;-56
2023/06/11 20:59:45;;;;;;;61.28;8.45;;;;;;;;;;5020014;28;20031;-56
2023/06/11 21:02:10;;;;;;;90.90;11.65;;;;;;;;;;5019629;28;20042;-56
2023/06/11 21:04:35;;;;;;;52.15;7.70;;;;;;;;;;5021144;28;20025;-59
2023/06/11 21:07:00;;;;;;;85.10;11.23;;;;;;;;;;5018326;28;20030;-59
2023/06/11 21:09:26;;;;;;;63.70;8.43;;;;;;;;;;5020975;28;20807;-58
2023/06/11 21:11:54;;;;;;;59.45;7.97;;;;;;;;;;5021193;28;20541;-55
2023/06/11 21:14:20;;;;;;;51.38;7.63;;;;;;;;;;5020033;28;20122;-55
2023/06/11 21:16:45;;;;;;;57.03;8.15;;;;;;;;;;5020628;28;20120;-59
2023/06/11 21:19:10;;;;;;;79.40;9.70;;;;;;;;;;5019454;28;20052;-57
2023/06/11 21:21:36;;;;;;;61.97;9.07;;;;;;;;;;5021019;28;20033;-61
2023/06/11 21:24:02;;;;;;;83.00;9.80;;;;;;;;;;5020292;28;20252;-57
2023/06/11 21:26:27;;;;;;;61.97;8.63;;;;;;;;;;5019380;28;20025;-58
2023/06/11 21:28:53;;;;;;;66.53;8.93;;;;;;;;;;5023293;28;20029;-59
2023/06/11 21:31:18;;;;;;;51.67;8.00;;;;;;;;;;5021155;28;20037;-61